createdAt,value
2022-09-06T00:00:32.600Z,5.07
2022-09-06T00:03:01.220Z,3.75
2022-09-06T00:05:30.419Z,5.53
2022-09-06T00:08:00.680Z,4.18
2022-09-06T00:10:30.230Z,4.75
2022-09-06T00:13:04.013Z,5.28
2022-09-06T00:15:32.766Z,4.70
2022-09-06T00:18:02.112Z,3.83
2022-09-06T00:20:31.780Z,4.72
2022-09-06T00:23:01.649Z,4.57
2022-09-06T00:25:30.858Z,4.82
2022-09-06T00:28:01.960Z,3.90
2022-09-06T00:30:33.490Z,4.28
2022-09-06T00:35:30.879Z,6.22
2022-09-06T00:37:59.668Z,5.32
2022-09-06T00:40:29.507Z,3.72
2022-09-06T00:42:58.459Z,6.22
2022-09-06T00:45:29.058Z,3.78
2022-09-06T00:48:00.906Z,4.83
2022-09-06T00:50:30.851Z,7.85
2022-09-06T00:52:59.361Z,5.40
2022-09-06T00:55:28.243Z,4.28
2022-09-06T00:57:57.548Z,4.38
2022-09-06T01:00:25.929Z,3.88
2022-09-06T01:02:55.348Z,5.88
2022-09-06T01:05:32.993Z,3.70
2022-09-06T01:08:08.796Z,6.07
2022-09-06T01:10:52.199Z,5.80
2022-09-06T01:13:34.407Z,5.97
2022-09-06T01:16:13.232Z,6.95
2022-09-06T01:19:08.911Z,4.97
2022-09-06T01:21:46.863Z,5.68
2022-09-06T01:24:47.721Z,5.88
2022-09-06T01:27:55.044Z,5.30
2022-09-06T01:30:23.712Z,5.80
2022-09-06T01:32:57.958Z,5.72
2022-09-06T01:35:32.197Z,4.75
2022-09-06T01:38:01.863Z,3.50
2022-09-06T01:40:30.688Z,4.95
2022-09-06T01:43:00.680Z,4.15
2022-09-06T01:45:40.412Z,6.43
2022-09-06T01:48:18.125Z,4.65
2022-09-06T01:51:00.030Z,4.40
2022-09-06T01:53:49.781Z,3.42
2022-09-06T01:56:30.491Z,4.13
2022-09-06T01:59:19.060Z,4.53
2022-09-06T02:01:55.783Z,4.85
2022-09-06T02:04:28.864Z,4.95
2022-09-06T02:07:01.352Z,5.03
2022-09-06T02:09:36.260Z,5.93
2022-09-06T02:12:06.992Z,6.75
2022-09-06T02:14:42.179Z,4.57
2022-09-06T02:17:14.619Z,7.15
2022-09-06T02:19:47.316Z,4.93
2022-09-06T02:22:19.824Z,4.65
2022-09-06T02:24:50.587Z,4.20
2022-09-06T02:27:19.005Z,7.53
2022-09-06T02:29:49.057Z,11.63
2022-09-06T02:32:21.198Z,11.27
2022-09-06T02:34:50.338Z,7.72
2022-09-06T02:37:19.397Z,11.27
2022-09-06T02:39:47.854Z,13.02
2022-09-06T02:42:18.528Z,8.18
2022-09-06T02:44:49.280Z,8.77
2022-09-06T02:47:17.904Z,8.38
2022-09-06T02:49:46.297Z,7.30
2022-09-06T02:52:14.840Z,7.43
2022-09-06T02:54:43.278Z,8.73
2022-09-06T02:57:11.740Z,7.60
2022-09-06T02:59:43.084Z,9.55
2022-09-06T03:02:13.074Z,9.80
2022-09-06T03:04:41.653Z,8.63
2022-09-06T03:07:10.076Z,11.30
2022-09-06T03:09:38.603Z,10.00
2022-09-06T03:12:07.273Z,7.57
2022-09-06T03:14:37.337Z,12.38
2022-09-06T03:17:06.037Z,8.88
2022-09-06T03:19:36.094Z,7.82
2022-09-06T03:22:04.609Z,9.68
2022-09-06T03:24:33.022Z,9.77
2022-09-06T03:27:01.381Z,10.73
2022-09-06T03:29:29.863Z,6.85
2022-09-06T03:31:58.343Z,6.57
2022-09-06T03:34:26.799Z,8.55
2022-09-06T03:36:56.706Z,8.13
2022-09-06T03:39:25.272Z,8.40
2022-09-06T03:41:53.761Z,7.53
2022-09-06T03:44:22.094Z,8.00
2022-09-06T03:46:51.737Z,10.32
2022-09-06T03:49:20.123Z,10.13
2022-09-06T03:51:48.481Z,7.97
2022-09-06T03:54:18.276Z,8.35
2022-09-06T03:56:46.574Z,9.63
2022-09-06T03:59:14.936Z,7.07
2022-09-06T04:01:43.434Z,6.80
2022-09-06T04:04:11.886Z,5.88
2022-09-06T04:06:40.193Z,4.90
2022-09-06T04:09:08.546Z,9.27
2022-09-06T04:11:38.658Z,8.88
2022-09-06T04:14:07.031Z,5.47
2022-09-06T04:16:35.602Z,7.90
2022-09-06T04:19:04.607Z,5.28
2022-09-06T04:21:33.025Z,6.28
2022-09-06T04:24:01.395Z,7.68
2022-09-06T04:26:29.764Z,5.40
2022-09-06T04:28:59.684Z,7.60
2022-09-06T04:31:28.309Z,5.43
2022-09-06T04:33:56.829Z,5.47
2022-09-06T04:36:25.350Z,6.60
2022-09-06T04:38:54.840Z,5.95
2022-09-06T04:41:24.378Z,8.60
2022-09-06T04:43:52.737Z,5.93
2022-09-06T04:46:25.376Z,8.05
2022-09-06T04:48:54.772Z,9.73
2022-09-06T04:51:23.778Z,8.57
2022-09-06T04:53:52.791Z,8.32
2022-09-06T04:56:23.255Z,7.63
2022-09-06T04:58:54.476Z,6.45
2022-09-06T05:01:26.350Z,6.93
2022-09-06T05:03:56.879Z,8.38
2022-09-06T05:06:26.628Z,6.93
2022-09-06T05:08:54.950Z,7.22
2022-09-06T05:11:23.571Z,6.82
2022-09-06T05:13:52.135Z,8.05
2022-09-06T05:16:20.707Z,8.65
2022-09-06T05:18:50.701Z,7.35
2022-09-06T05:21:19.175Z,7.90
2022-09-06T05:23:48.361Z,7.13
2022-09-06T05:26:16.757Z,8.45
2022-09-06T05:28:45.162Z,7.00
2022-09-06T05:31:24.850Z,8.98
2022-09-06T05:33:55.622Z,8.25
2022-09-06T05:36:24.914Z,10.13
2022-09-06T05:38:53.864Z,9.20
2022-09-06T05:41:23.241Z,7.45
2022-09-06T05:43:51.882Z,7.72
2022-09-06T05:46:20.463Z,7.50
2022-09-06T05:48:55.485Z,6.93
2022-09-06T05:51:24.278Z,6.28
2022-09-06T05:53:52.593Z,6.90
2022-09-06T05:56:22.331Z,6.45
2022-09-06T05:58:50.675Z,7.38
2022-09-06T06:01:21.006Z,6.68
2022-09-06T06:03:54.913Z,5.85
2022-09-06T06:06:24.069Z,8.45
2022-09-06T06:08:52.369Z,6.78
2022-09-06T06:11:21.667Z,8.60
2022-09-06T06:13:50.708Z,10.10
2022-09-06T06:16:20.929Z,9.40
2022-09-06T06:18:52.199Z,8.00
2022-09-06T06:21:24.657Z,6.72
2022-09-06T06:23:55.495Z,6.35
2022-09-06T06:26:24.410Z,9.52
2022-09-06T06:28:53.406Z,7.90
2022-09-06T06:31:22.798Z,7.65
2022-09-06T06:33:51.612Z,8.52
2022-09-06T06:36:25.632Z,6.97
2022-09-06T06:38:56.194Z,9.20
2022-09-06T06:41:27.218Z,10.70
2022-09-06T06:43:56.300Z,9.27
2022-09-06T06:46:26.728Z,10.27
2022-09-06T06:48:56.033Z,7.90
2022-09-06T06:51:28.367Z,12.65
2022-09-06T06:53:57.951Z,7.55
2022-09-06T06:56:28.699Z,8.55
2022-09-06T06:58:59.097Z,9.52
2022-09-06T07:01:29.283Z,10.25
2022-09-06T07:03:58.325Z,8.30
2022-09-06T07:09:19.135Z,9.83
2022-09-06T07:11:48.826Z,11.00
2022-09-06T07:14:17.472Z,8.40
2022-09-06T07:16:46.001Z,9.30
2022-09-06T07:22:05.783Z,5.78
2022-09-06T07:24:34.994Z,9.60
2022-09-06T07:29:51.549Z,7.63
2022-09-06T07:32:19.867Z,7.80
2022-09-06T07:34:48.186Z,7.28
2022-09-06T07:37:18.125Z,8.80
2022-09-06T07:39:46.488Z,7.20
2022-09-06T07:42:16.237Z,8.25
2022-09-06T07:44:44.549Z,7.00
2022-09-06T07:53:11.869Z,4.60
2022-09-06T07:55:42.289Z,7.75
2022-09-06T07:58:11.103Z,5.47
2022-09-06T08:00:41.371Z,5.05
2022-09-06T08:03:10.295Z,6.87
2022-09-06T08:11:16.784Z,6.45
2022-09-06T08:13:45.715Z,4.43
2022-09-06T08:16:15.620Z,6.50
2022-09-06T08:18:44.687Z,6.35
2022-09-06T08:21:14.609Z,4.78
2022-09-06T08:23:47.661Z,6.82
2022-09-06T08:26:16.549Z,4.93
2022-09-06T08:28:44.880Z,3.88
2022-09-06T08:31:14.656Z,4.82
2022-09-06T08:33:43.754Z,5.30
2022-09-06T08:36:13.011Z,5.43
2022-09-06T08:38:41.472Z,5.97
2022-09-06T08:41:13.424Z,4.40
2022-09-06T08:43:50.524Z,5.25
2022-09-06T08:46:20.430Z,4.53
2022-09-06T08:48:48.863Z,7.13
2022-09-06T08:52:00.138Z,5.53
2022-09-06T08:54:36.529Z,4.35
2022-09-06T08:57:15.848Z,6.20
2022-09-06T08:59:44.338Z,4.68
2022-09-06T09:02:15.718Z,6.22
2022-09-06T09:04:52.095Z,5.32
2022-09-06T09:07:45.074Z,6.63
2022-09-06T09:10:21.702Z,4.95
2022-09-06T09:12:52.001Z,5.30
2022-09-06T09:15:21.778Z,4.30
2022-09-06T09:17:52.841Z,5.07
2022-09-06T09:20:22.396Z,5.13
2022-09-06T09:22:51.026Z,4.45
2022-09-06T09:25:23.590Z,6.88
2022-09-06T09:27:57.771Z,3.65
2022-09-06T09:33:28.191Z,3.33
2022-09-06T09:35:57.609Z,5.15
2022-09-06T09:38:29.116Z,3.42
2022-09-06T09:40:59.504Z,6.18
2022-09-06T09:43:32.721Z,6.88
2022-09-06T09:46:16.273Z,4.38
2022-09-06T09:48:49.743Z,4.63
2022-09-06T09:51:26.714Z,3.88
2022-09-06T09:53:56.926Z,4.00
2022-09-06T09:56:48.440Z,5.32
2022-09-06T09:59:25.114Z,5.30
2022-09-06T10:01:56.771Z,5.65
2022-09-06T10:04:47.207Z,4.38
2022-09-06T10:07:18.062Z,5.40
2022-09-06T10:09:48.842Z,4.78
2022-09-06T10:12:29.174Z,5.05
2022-09-06T10:15:01.240Z,3.73
2022-09-06T10:17:34.365Z,6.32
2022-09-06T10:20:05.904Z,4.80
2022-09-06T10:22:41.873Z,4.93
2022-09-06T10:25:38.626Z,4.63
2022-09-06T10:28:24.821Z,5.93
2022-09-06T10:31:18.779Z,7.10
2022-09-06T10:33:59.329Z,8.00
2022-09-06T10:36:34.063Z,7.15
2022-09-06T10:39:06.341Z,6.32
2022-09-06T10:41:45.489Z,6.25
2022-09-06T10:44:30.514Z,5.13
2022-09-06T10:47:11.677Z,6.40
2022-09-06T10:49:41.821Z,5.38
2022-09-06T10:52:15.625Z,4.40
2022-09-06T10:54:47.326Z,4.65
2022-09-06T11:00:13.934Z,5.22
2022-09-06T11:05:42.694Z,6.32
2022-09-06T11:11:11.181Z,7.53
2022-09-06T11:13:40.080Z,4.65
2022-09-06T11:16:12.937Z,4.93
2022-09-06T11:18:49.286Z,5.80
2022-09-06T11:21:40.829Z,6.53
2022-09-06T11:24:13.735Z,5.47
2022-09-06T11:26:46.081Z,3.95
2022-09-06T11:29:22.323Z,5.72
2022-09-06T11:34:54.858Z,6.20
2022-09-06T11:37:29.275Z,3.57
2022-09-06T11:43:15.876Z,5.15
2022-09-06T11:45:47.683Z,6.80
2022-09-06T11:49:02.656Z,6.95
2022-09-06T11:51:38.312Z,6.90
2022-09-06T11:54:27.491Z,6.90
2022-09-06T11:57:00.841Z,5.20
2022-09-06T11:59:37.214Z,8.30
2022-09-06T12:02:07.465Z,6.82
2022-09-06T12:05:10.417Z,5.72
2022-09-06T12:08:02.045Z,8.10
2022-09-06T12:10:57.157Z,7.78
2022-09-06T12:13:43.488Z,7.80
2022-09-06T12:16:13.031Z,6.38
2022-09-06T12:19:02.565Z,8.07
2022-09-06T12:21:52.406Z,4.88
2022-09-06T12:24:56.327Z,6.13
2022-09-06T12:27:26.870Z,5.55
2022-09-06T12:29:59.553Z,6.70
2022-09-06T12:32:34.880Z,8.10
2022-09-06T12:37:57.517Z,5.93
2022-09-06T12:40:30.567Z,6.72
2022-09-06T12:42:59.443Z,11.07
2022-09-06T12:45:28.037Z,9.40
2022-09-06T12:48:08.646Z,7.78
2022-09-06T12:50:37.473Z,6.63
2022-09-06T12:53:23.140Z,8.45
2022-09-06T12:56:05.471Z,7.97
2022-09-06T12:58:34.050Z,5.70
2022-09-06T13:01:09.952Z,5.78
2022-09-06T13:03:42.099Z,8.38
2022-09-06T13:06:22.225Z,7.70
2022-09-06T13:08:57.121Z,7.05
2022-09-06T13:11:30.795Z,11.35
2022-09-06T13:13:59.999Z,6.90
2022-09-06T13:16:31.345Z,4.78
2022-09-06T13:19:12.779Z,8.15
2022-09-06T13:21:43.427Z,9.68
2022-09-06T13:24:23.238Z,6.57
2022-09-06T13:26:53.685Z,7.13
2022-09-06T13:29:26.590Z,7.45
2022-09-06T13:31:57.061Z,7.05
2022-09-06T13:34:27.652Z,9.35
2022-09-06T13:37:01.048Z,6.25
2022-09-06T13:39:37.593Z,6.03
2022-09-06T13:42:09.649Z,5.75
2022-09-06T13:44:39.056Z,5.13
2022-09-06T13:47:07.781Z,6.65
2022-09-06T13:49:36.114Z,8.20
2022-09-06T13:52:05.676Z,10.10
2022-09-06T13:54:35.728Z,12.95
2022-09-06T13:57:04.333Z,7.75
2022-09-06T13:59:33.920Z,7.85
2022-09-06T14:02:05.009Z,7.13
2022-09-06T14:07:01.730Z,7.22
2022-09-06T14:09:30.419Z,9.05
2022-09-06T14:12:33.534Z,7.20
2022-09-06T14:15:03.405Z,7.05
2022-09-06T14:17:32.928Z,6.25
2022-09-06T14:20:01.272Z,7.63
2022-09-06T14:22:29.685Z,10.73
2022-09-06T14:24:58.010Z,9.90
2022-09-06T14:27:26.430Z,7.50
2022-09-06T14:29:54.626Z,9.80
2022-09-06T14:32:25.722Z,9.13
2022-09-06T14:34:53.941Z,8.25
2022-09-06T14:37:22.792Z,11.40
2022-09-06T14:40:25.186Z,9.55
2022-09-06T14:42:53.579Z,7.20
2022-09-06T14:45:21.926Z,8.00
2022-09-06T14:47:51.700Z,10.13
2022-09-06T14:50:20.364Z,10.07
2022-09-06T14:52:48.762Z,10.65
2022-09-06T14:55:17.236Z,10.23
2022-09-06T14:57:45.881Z,9.85
2022-09-06T15:00:15.312Z,10.70
2022-09-06T15:02:44.160Z,13.07
2022-09-06T15:05:14.045Z,9.57
2022-09-06T15:07:42.526Z,10.52
2022-09-06T15:10:11.292Z,10.85
2022-09-06T15:12:39.682Z,10.93
2022-09-06T15:15:08.580Z,10.13
2022-09-06T15:17:37.263Z,10.30
2022-09-06T15:20:06.677Z,8.73
2022-09-06T15:22:36.661Z,8.68
2022-09-06T15:25:05.343Z,11.38
2022-09-06T15:27:33.713Z,10.13
2022-09-06T15:30:02.060Z,9.93
2022-09-06T15:32:30.597Z,9.50
2022-09-06T15:35:04.260Z,8.70
2022-09-06T15:37:33.061Z,9.70
2022-09-06T15:40:03.079Z,8.40
2022-09-06T15:42:31.901Z,9.48
2022-09-06T15:45:00.277Z,11.05
2022-09-06T15:47:29.169Z,10.27
2022-09-06T15:49:57.575Z,8.57
2022-09-06T15:52:25.987Z,10.90
2022-09-06T15:55:11.477Z,7.20
2022-09-06T15:57:41.257Z,7.53
2022-09-06T16:00:11.795Z,8.45
2022-09-06T16:02:40.201Z,8.63
2022-09-06T16:05:09.341Z,9.27
2022-09-06T16:07:41.077Z,10.52
2022-09-06T16:10:11.592Z,10.65
2022-09-06T16:12:41.611Z,9.38
2022-09-06T16:15:10.657Z,7.72
2022-09-06T16:17:39.120Z,10.77
2022-09-06T16:20:08.282Z,8.55
2022-09-06T16:22:36.707Z,7.65
2022-09-06T16:25:05.539Z,12.65
2022-09-06T16:27:34.008Z,7.72
2022-09-06T16:30:03.768Z,9.80
2022-09-06T16:32:32.368Z,9.88
2022-09-06T16:35:01.329Z,10.35
2022-09-06T16:37:29.675Z,7.60
2022-09-06T16:39:58.139Z,8.75
2022-09-06T16:42:26.554Z,11.35
2022-09-06T16:44:55.144Z,10.07
2022-09-06T16:47:24.985Z,10.05
2022-09-06T16:49:53.350Z,10.00
2022-09-06T16:52:21.758Z,12.82
2022-09-06T16:54:50.310Z,7.22
2022-09-06T16:57:19.062Z,9.88
2022-09-06T16:59:48.634Z,11.38
2022-09-06T17:02:18.196Z,9.88
2022-09-06T17:04:48.024Z,13.45
2022-09-06T17:07:16.380Z,7.90
2022-09-06T17:09:44.760Z,6.53
2022-09-06T17:12:13.164Z,10.60
2022-09-06T17:14:41.531Z,9.27
2022-09-06T17:17:10.022Z,9.70
2022-09-06T17:19:40.292Z,10.52
2022-09-06T17:22:11.268Z,9.75
2022-09-06T17:24:40.711Z,12.82
2022-09-06T17:27:09.761Z,12.63
2022-09-06T17:29:40.007Z,8.18
2022-09-06T17:32:10.499Z,9.13
2022-09-06T17:34:39.488Z,13.98
2022-09-06T17:37:09.668Z,9.80
2022-09-06T17:39:38.608Z,14.10
2022-09-06T17:42:07.759Z,18.08
2022-09-06T17:44:36.261Z,13.75
2022-09-06T17:47:13.933Z,17.50
2022-09-06T17:49:42.648Z,15.63
2022-09-06T17:52:13.729Z,10.32
2022-09-06T17:54:42.135Z,12.25
2022-09-06T17:57:10.503Z,15.40
2022-09-06T17:59:39.579Z,10.77
2022-09-06T18:02:08.891Z,12.10
2022-09-06T18:04:37.465Z,12.80
2022-09-06T18:07:06.038Z,12.15
2022-09-06T18:09:36.999Z,15.43
2022-09-06T18:12:06.866Z,12.60
2022-09-06T18:14:35.350Z,13.57
2022-09-06T18:17:03.697Z,15.55
2022-09-06T18:19:32.281Z,12.13
2022-09-06T18:22:00.653Z,12.40
2022-09-06T18:24:29.120Z,9.90
2022-09-06T18:26:58.888Z,10.07
2022-09-06T18:29:27.230Z,13.82
2022-09-06T18:31:57.219Z,13.93
2022-09-06T18:34:25.652Z,12.35
2022-09-06T18:36:54.218Z,13.73
2022-09-06T18:39:22.835Z,14.98
2022-09-06T18:42:07.114Z,16.25
2022-09-06T18:44:37.582Z,12.93
2022-09-06T18:47:07.698Z,14.35
2022-09-06T18:49:40.587Z,12.77
2022-09-06T18:52:11.804Z,12.85
2022-09-06T18:54:40.201Z,12.43
2022-09-06T18:57:08.782Z,12.73
2022-09-06T18:59:38.613Z,11.90
2022-09-06T19:02:07.532Z,11.85
2022-09-06T19:04:36.036Z,13.55
2022-09-06T19:07:04.846Z,11.27
2022-09-06T19:09:33.290Z,10.50
2022-09-06T19:12:01.730Z,9.30
2022-09-06T19:14:30.196Z,9.82
2022-09-06T19:17:00.006Z,10.60
2022-09-06T19:19:28.698Z,13.15
2022-09-06T19:21:57.076Z,14.60
2022-09-06T19:24:25.751Z,17.85
2022-09-06T19:26:55.297Z,14.95
2022-09-06T19:29:23.858Z,13.35
2022-09-06T19:31:53.076Z,12.15
2022-09-06T19:34:23.277Z,11.90
2022-09-06T19:36:55.318Z,13.73
2022-09-06T19:39:32.260Z,13.25
2022-09-06T19:42:03.557Z,9.60
2022-09-06T19:44:32.691Z,11.93
2022-09-06T19:47:01.219Z,13.65
2022-09-06T19:49:31.165Z,12.50
2022-09-06T19:51:59.590Z,10.75
2022-09-06T19:54:28.232Z,13.35
2022-09-06T19:56:56.744Z,15.55
2022-09-06T19:59:25.262Z,8.40
2022-09-06T20:01:53.783Z,15.77
2022-09-06T20:04:22.388Z,8.32
2022-09-06T20:06:52.415Z,11.38
2022-09-06T20:09:20.993Z,14.73
2022-09-06T20:11:49.717Z,11.68
2022-09-06T20:14:19.216Z,14.48
2022-09-06T20:16:49.094Z,12.80
2022-09-06T20:19:19.845Z,12.85
2022-09-06T20:21:49.191Z,10.93
2022-09-06T20:24:20.530Z,13.63
2022-09-06T20:26:50.112Z,12.82
2022-09-06T20:29:18.736Z,12.00
2022-09-06T20:31:47.258Z,12.05
2022-09-06T20:34:19.777Z,11.32
2022-09-06T20:36:48.760Z,12.70
2022-09-06T20:39:26.978Z,9.73
2022-09-06T20:41:55.523Z,11.05
2022-09-06T20:44:24.383Z,8.77
2022-09-06T20:46:52.847Z,9.30
2022-09-06T20:49:23.153Z,11.82
2022-09-06T20:51:51.542Z,9.40
2022-09-06T20:54:21.426Z,6.68
2022-09-06T20:56:50.582Z,11.15
2022-09-06T20:59:19.037Z,8.60
2022-09-06T21:01:48.191Z,8.68
2022-09-06T21:04:18.076Z,9.20
2022-09-06T21:06:47.134Z,10.23
2022-09-06T21:09:16.672Z,6.82
2022-09-06T21:11:47.779Z,8.95
2022-09-06T21:14:16.270Z,9.15
2022-09-06T21:16:45.003Z,7.25
2022-09-06T21:19:13.960Z,6.20
2022-09-06T21:21:42.851Z,6.65
2022-09-06T21:24:12.250Z,5.10
2022-09-06T21:26:41.088Z,6.75
2022-09-06T21:29:11.634Z,10.88
2022-09-06T21:31:40.183Z,10.33
2022-09-06T21:34:17.042Z,7.28
2022-09-06T21:36:46.153Z,9.05
2022-09-06T21:39:15.027Z,10.15
2022-09-06T21:41:45.813Z,5.85
2022-09-06T21:44:15.963Z,8.88
2022-09-06T21:46:44.636Z,6.07
2022-09-06T21:49:14.870Z,10.38
2022-09-06T21:51:43.906Z,15.07
2022-09-06T21:54:12.453Z,10.05
2022-09-06T21:56:41.393Z,5.78
2022-09-06T21:59:10.974Z,8.13
2022-09-06T22:01:44.013Z,10.48
2022-09-06T22:04:14.135Z,5.53
2022-09-06T22:06:42.593Z,7.15
2022-09-06T22:09:15.694Z,7.70
2022-09-06T22:11:45.611Z,8.68
2022-09-06T22:14:15.302Z,7.20
2022-09-06T22:16:45.610Z,8.02
2022-09-06T22:19:14.311Z,7.22
2022-09-06T22:21:42.739Z,10.15
2022-09-06T22:24:12.711Z,7.93
2022-09-06T22:26:42.510Z,8.80
2022-09-06T22:29:13.636Z,9.43
2022-09-06T22:31:42.664Z,6.65
2022-09-06T22:34:12.729Z,10.32
2022-09-06T22:36:41.291Z,9.43
2022-09-06T22:39:10.150Z,7.75
2022-09-06T22:41:38.955Z,9.07
2022-09-06T22:44:07.404Z,5.72
2022-09-06T22:46:37.133Z,7.50
2022-09-06T22:49:05.661Z,10.68
2022-09-06T22:51:35.584Z,7.53
2022-09-06T22:54:04.633Z,9.20
2022-09-06T22:56:33.586Z,8.05
2022-09-06T22:59:01.990Z,10.45
2022-09-06T23:01:32.719Z,9.52
2022-09-06T23:04:01.331Z,8.07
2022-09-06T23:06:29.738Z,10.73
2022-09-06T23:09:00.037Z,9.82
2022-09-06T23:11:28.847Z,8.65
2022-09-06T23:13:57.917Z,8.40
2022-09-06T23:16:27.406Z,9.25
2022-09-06T23:18:57.354Z,9.77
2022-09-06T23:21:26.915Z,12.55
2022-09-06T23:23:58.340Z,7.85
2022-09-06T23:28:57.634Z,9.38
2022-09-06T23:31:27.410Z,11.63
2022-09-06T23:33:57.071Z,11.05
2022-09-06T23:36:26.323Z,8.60
2022-09-06T23:38:56.189Z,7.82
2022-09-06T23:41:26.219Z,8.85
2022-09-06T23:43:54.709Z,9.27
2022-09-06T23:46:23.517Z,6.82
2022-09-06T23:48:52.083Z,5.63
2022-09-06T23:51:20.802Z,9.20
2022-09-06T23:53:49.345Z,7.90
2022-09-06T23:56:17.776Z,4.70
2022-09-06T23:58:47.940Z,8.95
